createdAt,value
2023-05-13T00:00:13.183Z,101412.23
2023-05-13T00:03:51.250Z,101414.70
2023-05-13T00:07:18.069Z,101416.41
2023-05-13T00:10:45.504Z,101413.52
2023-05-13T00:14:12.987Z,101415.61
2023-05-13T00:17:42.800Z,101412.67
2023-05-13T00:21:10.752Z,101411.51
2023-05-13T00:24:37.701Z,101412.27
2023-05-13T00:28:04.399Z,101410.36
2023-05-13T00:31:30.986Z,101407.22
2023-05-13T00:34:58.323Z,101406.10
2023-05-13T00:38:25.395Z,101408.80
2023-05-13T00:41:52.147Z,101407.45
2023-05-13T00:45:19.612Z,101411.85
2023-05-13T00:48:47.568Z,101409.02
2023-05-13T00:52:15.852Z,101411.90
2023-05-13T00:55:46.601Z,101414.29
2023-05-13T00:59:13.978Z,101414.77
2023-05-13T01:02:52.341Z,101416.44
2023-05-13T01:06:25.368Z,101420.70
2023-05-13T01:09:56.040Z,101422.02
2023-05-13T01:13:28.690Z,101419.29
2023-05-13T01:17:02.794Z,101420.21
2023-05-13T01:20:28.973Z,101420.13
2023-05-13T01:23:56.438Z,101422.37
2023-05-13T01:27:28.353Z,101423.65
2023-05-13T01:30:56.491Z,101422.16
2023-05-13T01:34:27.920Z,101426.95
2023-05-13T01:37:54.969Z,101428.30
2023-05-13T01:41:22.271Z,101431.94
2023-05-13T01:44:49.326Z,101429.15
2023-05-13T01:48:18.890Z,101426.55
2023-05-13T01:51:47.826Z,101427.20
2023-05-13T01:55:14.676Z,101426.60
2023-05-13T01:58:44.212Z,101427.76
2023-05-13T02:02:11.432Z,101426.91
2023-05-13T02:05:38.864Z,101426.56
2023-05-13T02:09:08.457Z,101428.51
2023-05-13T02:12:38.586Z,101425.58
2023-05-13T02:16:06.480Z,101427.71
2023-05-13T02:19:34.126Z,101426.59
2023-05-13T02:23:00.919Z,101426.35
2023-05-13T02:26:28.035Z,101423.02
2023-05-13T02:29:55.135Z,101422.34
2023-05-13T02:33:23.616Z,101426.98
2023-05-13T02:36:51.806Z,101431.28
2023-05-13T02:40:19.128Z,101435.21
2023-05-13T02:43:47.954Z,101431.99
2023-05-13T02:47:17.570Z,101432.84
2023-05-13T02:50:44.658Z,101432.27
2023-05-13T02:54:12.060Z,101436.05
2023-05-13T02:57:38.955Z,101440.46
2023-05-13T03:01:07.016Z,101443.02
2023-05-13T03:04:35.093Z,101441.08
2023-05-13T03:08:01.748Z,101440.63
2023-05-13T03:11:28.756Z,101440.20
2023-05-13T03:14:55.909Z,101438.07
2023-05-13T03:18:23.013Z,101442.09
2023-05-13T03:21:53.575Z,101441.41
2023-05-13T03:25:21.176Z,101446.14
2023-05-13T03:28:52.214Z,101449.83
2023-05-13T03:32:20.206Z,101448.41
2023-05-13T03:35:49.300Z,101450.08
2023-05-13T03:39:17.966Z,101451.44
2023-05-13T03:42:44.944Z,101452.17
2023-05-13T03:46:12.588Z,101448.21
2023-05-13T03:49:39.554Z,101448.70
2023-05-13T03:53:07.391Z,101448.27
2023-05-13T03:56:36.006Z,101451.01
2023-05-13T04:00:03.849Z,101448.33
2023-05-13T04:03:41.556Z,101453.40
2023-05-13T04:07:09.907Z,101457.42
2023-05-13T04:10:36.881Z,101457.95
2023-05-13T04:14:04.450Z,101464.19
2023-05-13T04:17:31.233Z,101465.73
2023-05-13T04:21:01.093Z,101465.10
2023-05-13T04:24:28.676Z,101464.75
2023-05-13T04:27:55.886Z,101465.67
2023-05-13T04:31:28.462Z,101471.23
2023-05-13T04:34:56.365Z,101473.66
2023-05-13T04:38:26.185Z,101467.94
2023-05-13T04:41:55.600Z,101469.78
2023-05-13T04:45:24.240Z,101472.13
2023-05-13T04:48:51.095Z,101471.53
2023-05-13T04:52:19.915Z,101468.61
2023-05-13T04:55:48.083Z,101466.02
2023-05-13T04:59:14.695Z,101463.23
2023-05-13T05:02:41.343Z,101468.66
2023-05-13T05:06:10.640Z,101471.06
2023-05-13T05:09:37.695Z,101474.11
2023-05-13T05:13:05.398Z,101477.47
2023-05-13T05:16:34.151Z,101479.80
2023-05-13T05:20:01.019Z,101468.93
2023-05-13T05:23:28.169Z,101480.45
2023-05-13T05:26:57.117Z,101480.78
2023-05-13T05:30:24.446Z,101485.83
2023-05-13T05:34:01.224Z,101487.02
2023-05-13T05:37:28.506Z,101482.77
2023-05-13T05:40:55.381Z,101487.06
2023-05-13T05:44:22.313Z,101485.74
2023-05-13T05:47:48.844Z,101489.77
2023-05-13T05:51:17.444Z,101485.27
2023-05-13T05:54:44.708Z,101486.68
2023-05-13T05:58:16.692Z,101484.59
2023-05-13T06:01:43.763Z,101484.94
2023-05-13T06:05:11.988Z,101484.63
2023-05-13T06:08:39.547Z,101482.66
2023-05-13T06:12:08.703Z,101483.48
2023-05-13T06:15:35.735Z,101486.41
2023-05-13T06:19:02.574Z,101482.95
2023-05-13T06:22:30.060Z,101484.16
2023-05-13T06:25:59.025Z,101483.27
2023-05-13T06:29:26.112Z,101479.00
2023-05-13T06:33:01.628Z,101484.02
2023-05-13T06:36:30.721Z,101483.23
2023-05-13T06:39:58.861Z,101481.61
2023-05-13T06:43:26.542Z,101482.46
2023-05-13T06:46:57.380Z,101478.67
2023-05-13T06:50:25.502Z,101482.05
2023-05-13T06:53:53.726Z,101481.20
2023-05-13T06:57:25.211Z,101479.29
2023-05-13T07:01:02.051Z,101478.23
2023-05-13T07:04:30.652Z,101476.73
2023-05-13T07:07:57.172Z,101477.60
2023-05-13T07:11:24.661Z,101481.09
2023-05-13T07:14:52.228Z,101481.45
2023-05-13T07:18:18.866Z,101477.16
2023-05-13T07:21:45.476Z,101476.63
2023-05-13T07:25:13.828Z,101476.59
2023-05-13T07:28:41.246Z,101476.86
2023-05-13T07:32:10.231Z,101473.91
2023-05-13T07:35:41.007Z,101474.77
2023-05-13T07:39:09.006Z,101477.83
2023-05-13T07:42:36.129Z,101470.89
2023-05-13T07:46:06.027Z,101472.79
2023-05-13T07:49:35.348Z,101470.35
2023-05-13T07:53:01.969Z,101471.38
2023-05-13T07:56:30.081Z,101472.58
2023-05-13T08:00:02.032Z,101470.85
2023-05-13T08:03:29.340Z,101469.67
2023-05-13T08:06:56.609Z,101474.52
2023-05-13T08:10:24.583Z,101467.89
2023-05-13T08:13:51.744Z,101468.73
2023-05-13T08:17:20.040Z,101469.31
2023-05-13T08:20:47.360Z,101470.83
2023-05-13T08:24:16.636Z,101469.16
2023-05-13T08:27:47.221Z,101464.64
2023-05-13T08:31:17.352Z,101464.17
2023-05-13T08:34:45.740Z,101459.90
2023-05-13T08:38:13.152Z,101463.38
2023-05-13T08:41:42.473Z,101463.24
2023-05-13T08:45:12.751Z,101464.08
2023-05-13T08:48:40.916Z,101458.79
2023-05-13T08:52:08.973Z,101455.81
2023-05-13T08:55:37.873Z,101453.02
2023-05-13T08:59:05.722Z,101450.63
2023-05-13T09:02:32.954Z,101444.72
2023-05-13T09:06:01.606Z,101445.10
2023-05-13T09:09:29.836Z,101443.77
2023-05-13T09:12:57.180Z,101442.78
2023-05-13T09:16:29.395Z,101444.46
2023-05-13T09:19:57.510Z,101445.13
2023-05-13T09:23:28.682Z,101435.27
2023-05-13T09:26:56.761Z,101442.60
2023-05-13T09:30:24.988Z,101435.30
2023-05-13T09:33:56.698Z,101433.52
2023-05-13T09:37:26.757Z,101429.55
2023-05-13T09:40:58.629Z,101430.54
2023-05-13T09:44:26.391Z,101426.02
2023-05-13T09:47:57.492Z,101421.56
2023-05-13T09:51:28.598Z,101423.02
2023-05-13T09:54:59.927Z,101418.98
2023-05-13T09:58:28.287Z,101412.05
2023-05-13T10:02:00.321Z,101405.43
2023-05-13T10:05:27.399Z,101401.84
2023-05-13T10:08:55.488Z,101403.82
2023-05-13T10:12:23.837Z,101400.22
2023-05-13T10:15:53.199Z,101397.63
2023-05-13T10:19:21.522Z,101396.73
2023-05-13T10:22:51.014Z,101393.32
2023-05-13T10:26:17.779Z,101392.55
2023-05-13T10:29:47.091Z,101385.03
2023-05-13T10:33:14.060Z,101389.08
2023-05-13T10:36:59.541Z,101387.66
2023-05-13T10:40:59.149Z,101385.52
2023-05-13T10:44:27.049Z,101379.38
2023-05-13T10:47:56.416Z,101374.58
2023-05-13T10:51:26.864Z,101374.46
2023-05-13T10:55:03.815Z,101368.02
2023-05-13T10:58:37.038Z,101373.44
2023-05-13T11:02:21.513Z,101370.11
2023-05-13T11:06:04.741Z,101364.50
2023-05-13T11:09:32.954Z,101361.45
2023-05-13T11:13:25.227Z,101364.16
2023-05-13T11:17:08.524Z,101364.88
2023-05-13T11:20:51.706Z,101367.45
2023-05-13T11:24:22.180Z,101363.41
2023-05-13T11:27:48.919Z,101365.81
2023-05-13T11:31:21.060Z,101366.36
2023-05-13T11:34:56.957Z,101359.00
2023-05-13T11:38:27.601Z,101344.60
2023-05-13T11:41:57.584Z,101351.41
2023-05-13T11:45:26.210Z,101353.87
2023-05-13T11:48:53.558Z,101348.09
2023-05-13T11:52:21.831Z,101341.91
2023-05-13T11:55:50.323Z,101341.69
2023-05-13T11:59:18.644Z,101335.79
2023-05-13T12:02:46.789Z,101333.45
2023-05-13T12:06:13.417Z,101327.79
2023-05-13T12:09:42.370Z,101328.95
2023-05-13T12:13:09.832Z,101338.02
2023-05-13T12:16:37.146Z,101332.95
2023-05-13T12:20:16.375Z,101329.75
2023-05-13T12:23:44.900Z,101335.20
2023-05-13T12:27:14.670Z,101330.55
2023-05-13T12:30:43.187Z,101336.41
2023-05-13T12:34:09.899Z,101337.36
2023-05-13T12:37:37.489Z,101346.84
2023-05-13T12:41:18.630Z,101341.18
2023-05-13T12:44:49.385Z,101340.10
2023-05-13T12:48:16.316Z,101339.36
2023-05-13T12:51:42.659Z,101338.84
2023-05-13T12:55:13.362Z,101338.34
2023-05-13T12:58:42.185Z,101341.05
2023-05-13T13:02:09.408Z,101343.69
2023-05-13T13:05:37.324Z,101343.70
2023-05-13T13:09:04.451Z,101337.26
2023-05-13T13:12:31.185Z,101334.30
2023-05-13T13:15:58.233Z,101332.58
2023-05-13T13:19:25.464Z,101325.73
2023-05-13T13:22:52.408Z,101318.23
2023-05-13T13:26:24.539Z,101314.82
2023-05-13T13:29:51.863Z,101325.66
2023-05-13T13:33:21.424Z,101338.23
2023-05-13T13:36:48.493Z,101364.76
2023-05-13T13:40:20.196Z,101367.46
2023-05-13T13:43:50.607Z,101350.33
2023-05-13T13:47:18.247Z,101347.29
2023-05-13T13:50:47.729Z,101343.61
2023-05-13T13:54:15.539Z,101335.60
2023-05-13T13:57:42.681Z,101332.86
2023-05-13T14:01:09.475Z,101329.63
2023-05-13T14:04:37.325Z,101324.03
2023-05-13T14:08:04.484Z,101321.41
2023-05-13T14:11:30.945Z,101312.83
2023-05-13T14:14:58.539Z,101313.69
2023-05-13T14:18:31.658Z,101315.02
2023-05-13T14:22:00.182Z,101317.77
2023-05-13T14:25:31.551Z,101309.19
2023-05-13T14:28:58.905Z,101299.29
2023-05-13T14:32:27.313Z,101293.08
2023-05-13T14:35:55.301Z,101293.58
2023-05-13T14:39:27.129Z,101295.87
2023-05-13T14:42:55.890Z,101300.48
2023-05-13T14:46:24.868Z,101293.28
2023-05-13T14:49:52.043Z,101290.80
2023-05-13T14:53:24.939Z,101300.34
2023-05-13T14:56:54.492Z,101298.98
2023-05-13T15:00:25.185Z,101300.11
2023-05-13T15:03:52.483Z,101298.00
2023-05-13T15:07:21.542Z,101298.58
2023-05-13T15:10:49.107Z,101298.36
2023-05-13T15:14:18.524Z,101300.79
2023-05-13T15:17:45.456Z,101298.27
2023-05-13T15:21:12.455Z,101299.30
2023-05-13T15:24:41.223Z,101294.44
2023-05-13T15:28:10.647Z,101285.48
2023-05-13T15:31:38.014Z,101280.50
2023-05-13T15:35:05.382Z,101281.02
2023-05-13T15:38:32.812Z,101275.96
2023-05-13T15:42:01.121Z,101278.50
2023-05-13T15:45:28.098Z,101280.36
2023-05-13T15:48:55.720Z,101278.67
2023-05-13T15:52:22.520Z,101280.30
2023-05-13T15:55:49.488Z,101275.80
2023-05-13T15:59:16.256Z,101274.94
2023-05-13T16:02:44.627Z,101273.17
2023-05-13T16:06:11.771Z,101268.61
2023-05-13T16:09:38.824Z,101269.60
2023-05-13T16:13:05.865Z,101267.11
2023-05-13T16:16:32.718Z,101264.23
2023-05-13T16:20:00.408Z,101263.52
2023-05-13T16:23:27.846Z,101262.03
2023-05-13T16:26:55.020Z,101264.17
2023-05-13T16:30:23.013Z,101264.86
2023-05-13T16:33:49.462Z,101257.52
2023-05-13T16:37:18.120Z,101257.14
2023-05-13T16:40:45.829Z,101260.17
2023-05-13T16:44:14.054Z,101261.79
2023-05-13T16:47:41.572Z,101263.41
2023-05-13T16:51:08.959Z,101262.31
2023-05-13T16:54:39.950Z,101256.84
2023-05-13T16:58:07.304Z,101257.63
2023-05-13T17:01:34.929Z,101253.89
2023-05-13T17:05:03.171Z,101253.89
2023-05-13T17:08:30.639Z,101250.02
2023-05-13T17:11:58.105Z,101240.27
2023-05-13T17:15:25.361Z,101243.77
2023-05-13T17:18:52.995Z,101240.41
2023-05-13T17:22:21.957Z,101235.58
2023-05-13T17:25:51.566Z,101235.02
2023-05-13T17:29:18.454Z,101235.86
2023-05-13T17:32:48.429Z,101241.08
2023-05-13T17:36:17.981Z,101243.41
2023-05-13T17:39:52.225Z,101248.99
2023-05-13T17:43:23.043Z,101248.88
2023-05-13T17:46:51.911Z,101253.95
2023-05-13T17:50:19.067Z,101252.02
2023-05-13T17:53:47.508Z,101251.02
2023-05-13T17:57:16.197Z,101254.11
2023-05-13T18:00:43.224Z,101255.30
2023-05-13T18:04:12.385Z,101260.45
2023-05-13T18:07:39.808Z,101262.07
2023-05-13T18:11:06.827Z,101261.81
2023-05-13T18:14:34.138Z,101261.30
2023-05-13T18:18:04.360Z,101267.79
2023-05-13T18:21:32.074Z,101266.10
2023-05-13T18:24:59.073Z,101268.45
2023-05-13T18:28:27.636Z,101275.11
2023-05-13T18:31:54.396Z,101279.69
2023-05-13T18:35:21.727Z,101281.99
2023-05-13T18:38:49.294Z,101283.30
2023-05-13T18:42:16.582Z,101290.55
2023-05-13T18:45:44.141Z,101294.08
2023-05-13T18:49:11.944Z,101294.06
2023-05-13T18:52:41.125Z,101300.86
2023-05-13T18:56:08.539Z,101300.15
2023-05-13T18:59:35.547Z,101306.86
2023-05-13T19:03:02.498Z,101306.52
2023-05-13T19:06:29.859Z,101306.09
2023-05-13T19:09:56.719Z,101306.90
2023-05-13T19:13:25.404Z,101305.91
2023-05-13T19:16:58.117Z,101310.71
2023-05-13T19:20:30.439Z,101306.20
2023-05-13T19:23:58.872Z,101311.50
2023-05-13T19:27:26.501Z,101310.42
2023-05-13T19:30:53.378Z,101310.92
2023-05-13T19:34:20.539Z,101317.42
2023-05-13T19:37:47.474Z,101314.10
2023-05-13T19:41:14.377Z,101317.98
2023-05-13T19:44:41.301Z,101315.48
2023-05-13T19:48:08.834Z,101314.19
2023-05-13T19:51:37.580Z,101318.55
2023-05-13T19:55:04.620Z,101321.36
2023-05-13T19:58:31.726Z,101319.67
2023-05-13T20:01:58.786Z,101317.50
2023-05-13T20:05:26.258Z,101321.06
2023-05-13T20:08:56.424Z,101318.98
2023-05-13T20:12:23.982Z,101324.13
2023-05-13T20:15:50.527Z,101325.50
2023-05-13T20:19:18.499Z,101329.30
2023-05-13T20:22:46.216Z,101325.48
2023-05-13T20:26:13.726Z,101324.63
2023-05-13T20:29:41.429Z,101325.70
2023-05-13T20:33:08.427Z,101320.60
2023-05-13T20:36:35.284Z,101325.33
2023-05-13T20:40:02.629Z,101324.19
2023-05-13T20:43:29.811Z,101325.08
2023-05-13T20:46:56.697Z,101319.79
2023-05-13T20:50:23.763Z,101322.39
2023-05-13T20:53:50.875Z,101317.29
2023-05-13T20:57:17.821Z,101318.46
2023-05-13T21:00:46.128Z,101313.22
2023-05-13T21:04:12.990Z,101309.53
2023-05-13T21:07:42.415Z,101312.52
2023-05-13T21:11:10.053Z,101309.48
2023-05-13T21:14:37.699Z,101311.35
2023-05-13T21:18:10.259Z,101313.99
2023-05-13T21:21:37.380Z,101313.02
2023-05-13T21:25:04.480Z,101315.19
2023-05-13T21:28:31.666Z,101310.65
2023-05-13T21:32:01.471Z,101309.86
2023-05-13T21:35:28.134Z,101309.88
2023-05-13T21:38:57.059Z,101306.02
2023-05-13T21:42:24.302Z,101306.07
2023-05-13T21:45:55.288Z,101306.23
2023-05-13T21:49:22.811Z,101306.79
2023-05-13T21:52:51.313Z,101309.53
2023-05-13T21:56:20.071Z,101308.73
2023-05-13T21:59:49.940Z,101311.42
2023-05-13T22:03:20.888Z,101310.32
2023-05-13T22:06:49.788Z,101304.94
2023-05-13T22:10:22.167Z,101305.42
2023-05-13T22:13:53.657Z,101308.11
2023-05-13T22:17:28.727Z,101306.79
2023-05-13T22:21:00.583Z,101305.98
2023-05-13T22:24:30.093Z,101307.10
2023-05-13T22:27:58.401Z,101301.77
2023-05-13T22:31:27.015Z,101299.59
2023-05-13T22:34:54.387Z,101297.18
2023-05-13T22:38:21.846Z,101290.05
2023-05-13T22:41:49.483Z,101292.05
2023-05-13T22:45:18.407Z,101291.15
2023-05-13T22:48:46.276Z,101291.50
2023-05-13T22:52:13.784Z,101294.70
2023-05-13T22:55:41.041Z,101301.30
2023-05-13T22:59:09.942Z,101307.13
2023-05-13T23:02:38.373Z,101309.36
2023-05-13T23:06:08.334Z,101305.76
2023-05-13T23:09:35.946Z,101310.19
2023-05-13T23:13:06.093Z,101305.42
2023-05-13T23:16:38.541Z,101306.02
2023-05-13T23:20:18.001Z,101302.14
2023-05-13T23:23:45.215Z,101301.52
2023-05-13T23:27:11.977Z,101300.23
2023-05-13T23:30:39.742Z,101297.38
2023-05-13T23:34:06.457Z,101293.55
2023-05-13T23:37:33.548Z,101293.21
2023-05-13T23:41:00.434Z,101293.67
2023-05-13T23:44:27.306Z,101294.63
2023-05-13T23:47:54.534Z,101297.08
2023-05-13T23:51:21.276Z,101298.11
2023-05-13T23:54:48.722Z,101292.28
2023-05-13T23:58:26.388Z,101289.61
